sensor_id;sensor_type;location;lat;lon;timestamp;temperature;humidity
7900;DHT22;3995;50.856;4.404;2023-02-26T00:00:17;10.10;39.00
7900;DHT22;3995;50.856;4.404;2023-02-26T00:02:46;10.10;38.90
7900;DHT22;3995;50.856;4.404;2023-02-26T00:05:14;10.10;39.00
7900;DHT22;3995;50.856;4.404;2023-02-26T00:07:41;10.10;39.00
7900;DHT22;3995;50.856;4.404;2023-02-26T00:10:12;10.10;39.00
7900;DHT22;3995;50.856;4.404;2023-02-26T00:12:41;10.10;39.00
7900;DHT22;3995;50.856;4.404;2023-02-26T00:15:10;10.10;39.10
7900;DHT22;3995;50.856;4.404;2023-02-26T00:17:44;10.10;39.20
7900;DHT22;3995;50.856;4.404;2023-02-26T00:20:16;10.10;39.20
7900;DHT22;3995;50.856;4.404;2023-02-26T00:22:43;10.00;39.20
7900;DHT22;3995;50.856;4.404;2023-02-26T00:25:12;10.00;39.20
7900;DHT22;3995;50.856;4.404;2023-02-26T00:27:40;10.00;39.30
7900;DHT22;3995;50.856;4.404;2023-02-26T00:30:08;10.00;39.40
7900;DHT22;3995;50.856;4.404;2023-02-26T00:32:36;10.00;39.30
7900;DHT22;3995;50.856;4.404;2023-02-26T00:35:06;10.00;39.40
7900;DHT22;3995;50.856;4.404;2023-02-26T00:37:59;10.00;39.40
7900;DHT22;3995;50.856;4.404;2023-02-26T00:40:38;10.00;39.40
7900;DHT22;3995;50.856;4.404;2023-02-26T00:43:08;10.00;39.50
7900;DHT22;3995;50.856;4.404;2023-02-26T00:45:42;10.00;39.60
7900;DHT22;3995;50.856;4.404;2023-02-26T00:48:21;10.00;39.60
7900;DHT22;3995;50.856;4.404;2023-02-26T00:50:58;10.10;39.60
7900;DHT22;3995;50.856;4.404;2023-02-26T00:53:33;10.00;39.60
7900;DHT22;3995;50.856;4.404;2023-02-26T00:56:03;10.00;39.60
7900;DHT22;3995;50.856;4.404;2023-02-26T00:58:30;9.90;40.50
7900;DHT22;3995;50.856;4.404;2023-02-26T01:00:59;9.90;40.60
7900;DHT22;3995;50.856;4.404;2023-02-26T01:03:26;9.90;40.70
7900;DHT22;3995;50.856;4.404;2023-02-26T01:05:54;9.90;40.80
7900;DHT22;3995;50.856;4.404;2023-02-26T01:08:26;9.90;40.80
7900;DHT22;3995;50.856;4.404;2023-02-26T01:10:58;9.90;40.80
7900;DHT22;3995;50.856;4.404;2023-02-26T01:13:27;9.90;41.00
7900;DHT22;3995;50.856;4.404;2023-02-26T01:16:00;9.90;41.10
7900;DHT22;3995;50.856;4.404;2023-02-26T01:18:34;9.90;41.10
7900;DHT22;3995;50.856;4.404;2023-02-26T01:21:09;9.90;41.20
7900;DHT22;3995;50.856;4.404;2023-02-26T01:23:41;9.90;41.20
7900;DHT22;3995;50.856;4.404;2023-02-26T01:26:14;9.90;41.20
7900;DHT22;3995;50.856;4.404;2023-02-26T01:28:46;9.90;41.20
7900;DHT22;3995;50.856;4.404;2023-02-26T01:31:24;9.90;41.40
7900;DHT22;3995;50.856;4.404;2023-02-26T01:33:57;9.90;41.50
7900;DHT22;3995;50.856;4.404;2023-02-26T01:36:30;9.90;41.50
7900;DHT22;3995;50.856;4.404;2023-02-26T01:39:03;9.90;41.50
7900;DHT22;3995;50.856;4.404;2023-02-26T01:41:35;9.90;41.60
7900;DHT22;3995;50.856;4.404;2023-02-26T01:44:12;9.90;41.60
7900;DHT22;3995;50.856;4.404;2023-02-26T01:46:54;9.90;41.60
7900;DHT22;3995;50.856;4.404;2023-02-26T01:49:26;9.90;41.70
7900;DHT22;3995;50.856;4.404;2023-02-26T01:51:55;9.80;41.80
7900;DHT22;3995;50.856;4.404;2023-02-26T01:54:26;9.90;41.90
7900;DHT22;3995;50.856;4.404;2023-02-26T01:56:58;9.90;41.90
7900;DHT22;3995;50.856;4.404;2023-02-26T01:59:31;9.90;41.90
7900;DHT22;3995;50.856;4.404;2023-02-26T02:01:59;9.80;41.80
7900;DHT22;3995;50.856;4.404;2023-02-26T02:04:30;9.80;42.00
7900;DHT22;3995;50.856;4.404;2023-02-26T02:06:58;9.70;42.10
7900;DHT22;3995;50.856;4.404;2023-02-26T02:09:26;9.70;42.20
7900;DHT22;3995;50.856;4.404;2023-02-26T02:12:07;9.70;42.10
7900;DHT22;3995;50.856;4.404;2023-02-26T02:14:45;9.80;42.10
7900;DHT22;3995;50.856;4.404;2023-02-26T02:17:22;9.70;42.20
7900;DHT22;3995;50.856;4.404;2023-02-26T02:20:23;9.70;42.20
7900;DHT22;3995;50.856;4.404;2023-02-26T02:23:07;9.70;42.20
7900;DHT22;3995;50.856;4.404;2023-02-26T02:25:53;9.70;42.40
7900;DHT22;3995;50.856;4.404;2023-02-26T02:28:35;9.70;42.40
7900;DHT22;3995;50.856;4.404;2023-02-26T02:31:08;9.60;42.40
7900;DHT22;3995;50.856;4.404;2023-02-26T02:33:43;9.60;42.40
7900;DHT22;3995;50.856;4.404;2023-02-26T02:36:14;9.60;42.30
7900;DHT22;3995;50.856;4.404;2023-02-26T02:38:46;9.60;42.40
7900;DHT22;3995;50.856;4.404;2023-02-26T02:41:18;9.60;42.30
7900;DHT22;3995;50.856;4.404;2023-02-26T02:43:46;9.60;42.30
7900;DHT22;3995;50.856;4.404;2023-02-26T02:46:19;9.50;42.10
7900;DHT22;3995;50.856;4.404;2023-02-26T02:48:52;9.50;42.20
7900;DHT22;3995;50.856;4.404;2023-02-26T02:51:23;9.50;42.30
7900;DHT22;3995;50.856;4.404;2023-02-26T02:53:56;9.50;42.20
7900;DHT22;3995;50.856;4.404;2023-02-26T02:56:29;9.50;42.00
7900;DHT22;3995;50.856;4.404;2023-02-26T02:59:11;9.50;42.10
7900;DHT22;3995;50.856;4.404;2023-02-26T03:01:43;9.50;42.00
7900;DHT22;3995;50.856;4.404;2023-02-26T03:04:12;9.40;42.00
7900;DHT22;3995;50.856;4.404;2023-02-26T03:06:40;9.40;42.20
7900;DHT22;3995;50.856;4.404;2023-02-26T03:09:08;9.40;42.30
7900;DHT22;3995;50.856;4.404;2023-02-26T03:11:36;9.40;42.70
7900;DHT22;3995;50.856;4.404;2023-02-26T03:14:04;9.40;42.00
7900;DHT22;3995;50.856;4.404;2023-02-26T03:16:46;9.40;41.90
7900;DHT22;3995;50.856;4.404;2023-02-26T03:19:21;9.40;41.90
7900;DHT22;3995;50.856;4.404;2023-02-26T03:21:55;9.40;42.00
7900;DHT22;3995;50.856;4.404;2023-02-26T03:24:27;9.40;41.90
7900;DHT22;3995;50.856;4.404;2023-02-26T03:26:58;9.40;42.10
7900;DHT22;3995;50.856;4.404;2023-02-26T03:29:32;9.30;42.10
7900;DHT22;3995;50.856;4.404;2023-02-26T03:32:05;9.30;42.00
7900;DHT22;3995;50.856;4.404;2023-02-26T03:34:38;9.30;41.90
7900;DHT22;3995;50.856;4.404;2023-02-26T03:37:13;9.30;41.90
7900;DHT22;3995;50.856;4.404;2023-02-26T03:39:45;9.30;41.80
7900;DHT22;3995;50.856;4.404;2023-02-26T03:42:17;9.20;41.70
7900;DHT22;3995;50.856;4.404;2023-02-26T03:44:48;9.20;41.80
7900;DHT22;3995;50.856;4.404;2023-02-26T03:47:19;9.20;41.70
7900;DHT22;3995;50.856;4.404;2023-02-26T03:49:51;9.20;41.80
7900;DHT22;3995;50.856;4.404;2023-02-26T03:52:19;9.10;41.80
7900;DHT22;3995;50.856;4.404;2023-02-26T03:54:52;9.10;41.80
7900;DHT22;3995;50.856;4.404;2023-02-26T03:57:21;9.20;41.80
7900;DHT22;3995;50.856;4.404;2023-02-26T03:59:48;9.10;41.70
7900;DHT22;3995;50.856;4.404;2023-02-26T04:02:17;9.10;41.70
7900;DHT22;3995;50.856;4.404;2023-02-26T04:04:53;9.10;41.90
7900;DHT22;3995;50.856;4.404;2023-02-26T04:07:22;9.10;41.90
7900;DHT22;3995;50.856;4.404;2023-02-26T04:09:51;9.10;41.90
7900;DHT22;3995;50.856;4.404;2023-02-26T04:12:20;9.10;41.70
7900;DHT22;3995;50.856;4.404;2023-02-26T04:14:48;9.10;41.70
7900;DHT22;3995;50.856;4.404;2023-02-26T04:17:15;9.00;41.70
7900;DHT22;3995;50.856;4.404;2023-02-26T04:19:43;9.00;41.80
7900;DHT22;3995;50.856;4.404;2023-02-26T04:22:12;9.00;41.70
7900;DHT22;3995;50.856;4.404;2023-02-26T04:24:39;9.00;41.60
7900;DHT22;3995;50.856;4.404;2023-02-26T04:27:06;9.00;41.70
7900;DHT22;3995;50.856;4.404;2023-02-26T04:29:33;9.00;41.80
7900;DHT22;3995;50.856;4.404;2023-02-26T04:32:02;9.00;41.80
7900;DHT22;3995;50.856;4.404;2023-02-26T04:34:29;9.00;41.80
7900;DHT22;3995;50.856;4.404;2023-02-26T04:36:56;9.00;41.90
7900;DHT22;3995;50.856;4.404;2023-02-26T04:39:25;9.00;41.80
7900;DHT22;3995;50.856;4.404;2023-02-26T04:41:52;9.00;41.80
7900;DHT22;3995;50.856;4.404;2023-02-26T04:44:19;9.00;41.80
7900;DHT22;3995;50.856;4.404;2023-02-26T04:46:47;9.00;41.70
7900;DHT22;3995;50.856;4.404;2023-02-26T04:49:14;9.00;41.60
7900;DHT22;3995;50.856;4.404;2023-02-26T04:51:42;8.90;41.40
7900;DHT22;3995;50.856;4.404;2023-02-26T04:54:09;8.90;41.40
7900;DHT22;3995;50.856;4.404;2023-02-26T04:56:38;8.90;41.30
7900;DHT22;3995;50.856;4.404;2023-02-26T04:59:05;8.90;41.10
7900;DHT22;3995;50.856;4.404;2023-02-26T05:01:32;8.90;41.10
7900;DHT22;3995;50.856;4.404;2023-02-26T05:03:59;8.90;41.00
7900;DHT22;3995;50.856;4.404;2023-02-26T05:06:26;8.90;40.90
7900;DHT22;3995;50.856;4.404;2023-02-26T05:08:54;8.90;40.80
7900;DHT22;3995;50.856;4.404;2023-02-26T05:11:21;8.90;40.80
7900;DHT22;3995;50.856;4.404;2023-02-26T05:13:50;8.80;40.80
7900;DHT22;3995;50.856;4.404;2023-02-26T05:16:17;8.80;40.90
7900;DHT22;3995;50.856;4.404;2023-02-26T05:18:44;8.80;40.80
7900;DHT22;3995;50.856;4.404;2023-02-26T05:21:11;8.80;40.80
7900;DHT22;3995;50.856;4.404;2023-02-26T05:23:38;8.80;40.80
7900;DHT22;3995;50.856;4.404;2023-02-26T05:26:05;8.80;40.80
7900;DHT22;3995;50.856;4.404;2023-02-26T05:28:32;8.80;40.80
7900;DHT22;3995;50.856;4.404;2023-02-26T05:31:02;8.80;40.90
7900;DHT22;3995;50.856;4.404;2023-02-26T05:33:30;8.80;41.00
7900;DHT22;3995;50.856;4.404;2023-02-26T05:35:57;8.80;40.90
7900;DHT22;3995;50.856;4.404;2023-02-26T05:38:24;8.80;41.00
7900;DHT22;3995;50.856;4.404;2023-02-26T05:40:55;8.80;41.00
7900;DHT22;3995;50.856;4.404;2023-02-26T05:43:23;8.80;41.00
7900;DHT22;3995;50.856;4.404;2023-02-26T05:45:51;8.70;40.90
7900;DHT22;3995;50.856;4.404;2023-02-26T05:48:20;8.70;41.00
7900;DHT22;3995;50.856;4.404;2023-02-26T05:50:49;8.80;41.10
7900;DHT22;3995;50.856;4.404;2023-02-26T05:53:16;8.80;41.10
7900;DHT22;3995;50.856;4.404;2023-02-26T05:55:44;8.70;41.00
7900;DHT22;3995;50.856;4.404;2023-02-26T05:58:11;8.80;41.00
7900;DHT22;3995;50.856;4.404;2023-02-26T06:00:39;8.80;40.90
7900;DHT22;3995;50.856;4.404;2023-02-26T06:03:06;8.80;40.80
7900;DHT22;3995;50.856;4.404;2023-02-26T06:05:35;8.80;40.70
7900;DHT22;3995;50.856;4.404;2023-02-26T06:08:02;8.80;40.70
7900;DHT22;3995;50.856;4.404;2023-02-26T06:10:30;8.80;40.70
7900;DHT22;3995;50.856;4.404;2023-02-26T06:12:57;8.70;40.70
7900;DHT22;3995;50.856;4.404;2023-02-26T06:15:24;8.70;40.70
7900;DHT22;3995;50.856;4.404;2023-02-26T06:17:51;8.70;40.70
7900;DHT22;3995;50.856;4.404;2023-02-26T06:20:18;8.70;40.70
7900;DHT22;3995;50.856;4.404;2023-02-26T06:22:47;8.60;40.50
7900;DHT22;3995;50.856;4.404;2023-02-26T06:25:14;8.60;40.50
7900;DHT22;3995;50.856;4.404;2023-02-26T06:27:41;8.60;40.50
7900;DHT22;3995;50.856;4.404;2023-02-26T06:30:09;8.60;40.50
7900;DHT22;3995;50.856;4.404;2023-02-26T06:32:36;8.60;40.40
7900;DHT22;3995;50.856;4.404;2023-02-26T06:35:05;8.60;40.40
7900;DHT22;3995;50.856;4.404;2023-02-26T06:37:32;8.60;40.40
7900;DHT22;3995;50.856;4.404;2023-02-26T06:40:01;8.60;40.50
7900;DHT22;3995;50.856;4.404;2023-02-26T06:42:28;8.60;40.30
7900;DHT22;3995;50.856;4.404;2023-02-26T06:44:55;8.60;40.20
7900;DHT22;3995;50.856;4.404;2023-02-26T06:47:23;8.60;40.10
7900;DHT22;3995;50.856;4.404;2023-02-26T06:49:50;8.60;40.20
7900;DHT22;3995;50.856;4.404;2023-02-26T06:52:17;8.60;40.20
7900;DHT22;3995;50.856;4.404;2023-02-26T06:54:44;8.60;40.00
7900;DHT22;3995;50.856;4.404;2023-02-26T06:57:13;8.60;40.00
7900;DHT22;3995;50.856;4.404;2023-02-26T06:59:40;8.50;39.90
7900;DHT22;3995;50.856;4.404;2023-02-26T07:02:08;8.50;39.90
7900;DHT22;3995;50.856;4.404;2023-02-26T07:04:40;8.50;39.90
7900;DHT22;3995;50.856;4.404;2023-02-26T07:07:08;8.50;39.80
7900;DHT22;3995;50.856;4.404;2023-02-26T07:09:35;8.50;40.40
7900;DHT22;3995;50.856;4.404;2023-02-26T07:12:02;8.50;39.60
7900;DHT22;3995;50.856;4.404;2023-02-26T07:14:33;8.50;39.50
7900;DHT22;3995;50.856;4.404;2023-02-26T07:17:01;8.50;39.40
7900;DHT22;3995;50.856;4.404;2023-02-26T07:19:28;8.50;39.50
7900;DHT22;3995;50.856;4.404;2023-02-26T07:21:55;8.50;39.40
7900;DHT22;3995;50.856;4.404;2023-02-26T07:24:23;8.50;39.40
7900;DHT22;3995;50.856;4.404;2023-02-26T07:26:50;8.50;39.20
7900;DHT22;3995;50.856;4.404;2023-02-26T07:29:17;8.40;39.10
7900;DHT22;3995;50.856;4.404;2023-02-26T07:31:46;8.40;39.10
7900;DHT22;3995;50.856;4.404;2023-02-26T07:34:13;8.40;38.90
7900;DHT22;3995;50.856;4.404;2023-02-26T07:36:40;8.40;38.90
7900;DHT22;3995;50.856;4.404;2023-02-26T07:39:07;8.30;38.80
7900;DHT22;3995;50.856;4.404;2023-02-26T07:41:34;8.30;38.70
7900;DHT22;3995;50.856;4.404;2023-02-26T07:44:01;8.30;38.80
7900;DHT22;3995;50.856;4.404;2023-02-26T07:46:28;8.30;38.70
7900;DHT22;3995;50.856;4.404;2023-02-26T07:48:58;8.30;39.00
7900;DHT22;3995;50.856;4.404;2023-02-26T07:51:25;8.30;38.90
7900;DHT22;3995;50.856;4.404;2023-02-26T07:53:52;8.30;38.80
7900;DHT22;3995;50.856;4.404;2023-02-26T07:56:19;8.20;39.20
7900;DHT22;3995;50.856;4.404;2023-02-26T07:58:46;8.30;38.70
7900;DHT22;3995;50.856;4.404;2023-02-26T08:01:13;8.20;38.60
7900;DHT22;3995;50.856;4.404;2023-02-26T08:03:41;8.20;38.70
7900;DHT22;3995;50.856;4.404;2023-02-26T08:06:09;8.20;38.70
7900;DHT22;3995;50.856;4.404;2023-02-26T08:08:36;8.20;38.60
7900;DHT22;3995;50.856;4.404;2023-02-26T08:11:04;8.20;38.60
7900;DHT22;3995;50.856;4.404;2023-02-26T08:13:31;8.20;38.60
7900;DHT22;3995;50.856;4.404;2023-02-26T08:15:58;8.20;38.50
7900;DHT22;3995;50.856;4.404;2023-02-26T08:18:26;8.20;38.50
7900;DHT22;3995;50.856;4.404;2023-02-26T08:20:53;8.20;38.50
7900;DHT22;3995;50.856;4.404;2023-02-26T08:23:22;8.20;38.40
7900;DHT22;3995;50.856;4.404;2023-02-26T08:25:59;8.20;38.50
7900;DHT22;3995;50.856;4.404;2023-02-26T08:28:26;8.20;38.50
7900;DHT22;3995;50.856;4.404;2023-02-26T08:30:53;8.20;38.60
7900;DHT22;3995;50.856;4.404;2023-02-26T08:33:20;8.20;38.60
7900;DHT22;3995;50.856;4.404;2023-02-26T08:35:48;8.20;38.60
7900;DHT22;3995;50.856;4.404;2023-02-26T08:38:15;8.20;38.50
7900;DHT22;3995;50.856;4.404;2023-02-26T08:40:47;8.20;38.70
7900;DHT22;3995;50.856;4.404;2023-02-26T08:43:15;8.20;38.80
7900;DHT22;3995;50.856;4.404;2023-02-26T08:45:42;8.20;38.80
7900;DHT22;3995;50.856;4.404;2023-02-26T08:48:10;8.20;38.80
7900;DHT22;3995;50.856;4.404;2023-02-26T08:50:37;8.20;38.80
7900;DHT22;3995;50.856;4.404;2023-02-26T08:53:05;8.20;38.80
7900;DHT22;3995;50.856;4.404;2023-02-26T08:55:33;8.20;38.70
7900;DHT22;3995;50.856;4.404;2023-02-26T08:58:02;8.20;38.80
7900;DHT22;3995;50.856;4.404;2023-02-26T09:00:30;8.20;38.80
7900;DHT22;3995;50.856;4.404;2023-02-26T09:02:57;8.20;38.90
7900;DHT22;3995;50.856;4.404;2023-02-26T09:05:24;8.20;38.80
7900;DHT22;3995;50.856;4.404;2023-02-26T09:07:52;8.20;38.60
7900;DHT22;3995;50.856;4.404;2023-02-26T09:10:19;8.20;38.60
7900;DHT22;3995;50.856;4.404;2023-02-26T09:12:46;8.20;38.50
7900;DHT22;3995;50.856;4.404;2023-02-26T09:15:15;8.20;38.50
7900;DHT22;3995;50.856;4.404;2023-02-26T09:17:43;8.20;38.50
7900;DHT22;3995;50.856;4.404;2023-02-26T09:20:11;8.20;38.60
7900;DHT22;3995;50.856;4.404;2023-02-26T09:22:39;8.30;38.50
7900;DHT22;3995;50.856;4.404;2023-02-26T09:25:07;8.30;38.50
7900;DHT22;3995;50.856;4.404;2023-02-26T09:27:35;8.30;38.30
7900;DHT22;3995;50.856;4.404;2023-02-26T09:30:03;8.30;38.20
7900;DHT22;3995;50.856;4.404;2023-02-26T09:32:32;8.30;38.40
7900;DHT22;3995;50.856;4.404;2023-02-26T09:34:59;8.40;38.50
7900;DHT22;3995;50.856;4.404;2023-02-26T09:37:27;8.40;38.40
7900;DHT22;3995;50.856;4.404;2023-02-26T09:39:54;8.50;38.50
7900;DHT22;3995;50.856;4.404;2023-02-26T09:42:32;8.60;38.50
7900;DHT22;3995;50.856;4.404;2023-02-26T09:45:04;8.60;38.40
7900;DHT22;3995;50.856;4.404;2023-02-26T09:47:37;8.60;38.50
7900;DHT22;3995;50.856;4.404;2023-02-26T09:50:12;8.70;38.30
7900;DHT22;3995;50.856;4.404;2023-02-26T09:52:46;8.80;37.90
7900;DHT22;3995;50.856;4.404;2023-02-26T09:55:18;8.90;37.80
7900;DHT22;3995;50.856;4.404;2023-02-26T09:57:53;8.90;37.90
7900;DHT22;3995;50.856;4.404;2023-02-26T10:00:26;9.00;37.60
7900;DHT22;3995;50.856;4.404;2023-02-26T10:03:07;9.00;37.20
7900;DHT22;3995;50.856;4.404;2023-02-26T10:05:40;9.20;37.00
7900;DHT22;3995;50.856;4.404;2023-02-26T10:08:14;9.20;36.80
7900;DHT22;3995;50.856;4.404;2023-02-26T10:10:48;9.30;36.40
7900;DHT22;3995;50.856;4.404;2023-02-26T10:13:22;9.30;36.20
7900;DHT22;3995;50.856;4.404;2023-02-26T10:15:52;9.40;36.00
7900;DHT22;3995;50.856;4.404;2023-02-26T10:18:28;9.40;35.80
7900;DHT22;3995;50.856;4.404;2023-02-26T10:21:00;9.50;35.90
7900;DHT22;3995;50.856;4.404;2023-02-26T10:23:37;9.60;36.00
7900;DHT22;3995;50.856;4.404;2023-02-26T10:26:10;9.70;35.80
7900;DHT22;3995;50.856;4.404;2023-02-26T10:28:50;9.70;35.50
7900;DHT22;3995;50.856;4.404;2023-02-26T10:31:24;9.80;35.10
7900;DHT22;3995;50.856;4.404;2023-02-26T10:34:08;9.80;35.20
7900;DHT22;3995;50.856;4.404;2023-02-26T10:36:43;9.90;35.20
7900;DHT22;3995;50.856;4.404;2023-02-26T10:39:21;10.00;33.90
7900;DHT22;3995;50.856;4.404;2023-02-26T10:41:50;10.00;33.80
7900;DHT22;3995;50.856;4.404;2023-02-26T10:44:23;10.10;33.80
7900;DHT22;3995;50.856;4.404;2023-02-26T10:46:58;10.10;33.30
7900;DHT22;3995;50.856;4.404;2023-02-26T10:49:44;10.10;32.60
7900;DHT22;3995;50.856;4.404;2023-02-26T10:52:15;10.10;32.00
7900;DHT22;3995;50.856;4.404;2023-02-26T10:54:49;10.00;32.00
7900;DHT22;3995;50.856;4.404;2023-02-26T10:57:22;9.90;32.80
7900;DHT22;3995;50.856;4.404;2023-02-26T10:59:50;9.80;32.70
7900;DHT22;3995;50.856;4.404;2023-02-26T11:02:35;9.70;32.60
7900;DHT22;3995;50.856;4.404;2023-02-26T11:05:07;9.70;32.60
7900;DHT22;3995;50.856;4.404;2023-02-26T11:07:40;9.60;32.70
7900;DHT22;3995;50.856;4.404;2023-02-26T11:10:14;9.50;32.80
7900;DHT22;3995;50.856;4.404;2023-02-26T11:12:41;9.50;32.60
7900;DHT22;3995;50.856;4.404;2023-02-26T11:15:14;9.40;32.50
7900;DHT22;3995;50.856;4.404;2023-02-26T11:17:44;9.40;32.50
7900;DHT22;3995;50.856;4.404;2023-02-26T11:20:23;9.30;32.50
7900;DHT22;3995;50.856;4.404;2023-02-26T11:22:53;9.30;32.80
7900;DHT22;3995;50.856;4.404;2023-02-26T11:25:23;9.30;33.10
7900;DHT22;3995;50.856;4.404;2023-02-26T11:27:56;9.30;32.90
7900;DHT22;3995;50.856;4.404;2023-02-26T11:30:26;9.30;32.80
7900;DHT22;3995;50.856;4.404;2023-02-26T11:32:57;9.30;32.80
7900;DHT22;3995;50.856;4.404;2023-02-26T11:35:26;9.30;32.70
7900;DHT22;3995;50.856;4.404;2023-02-26T11:37:56;9.30;32.80
7900;DHT22;3995;50.856;4.404;2023-02-26T11:40:32;9.30;32.70
7900;DHT22;3995;50.856;4.404;2023-02-26T11:43:04;9.40;32.70
7900;DHT22;3995;50.856;4.404;2023-02-26T11:45:34;9.40;32.90
7900;DHT22;3995;50.856;4.404;2023-02-26T11:48:04;9.50;33.00
7900;DHT22;3995;50.856;4.404;2023-02-26T11:50:39;9.50;32.90
7900;DHT22;3995;50.856;4.404;2023-02-26T11:53:16;9.60;32.80
7900;DHT22;3995;50.856;4.404;2023-02-26T11:55:46;9.60;32.70
7900;DHT22;3995;50.856;4.404;2023-02-26T11:58:19;9.60;32.70
7900;DHT22;3995;50.856;4.404;2023-02-26T12:00:47;9.60;32.60
7900;DHT22;3995;50.856;4.404;2023-02-26T12:03:16;9.60;32.50
7900;DHT22;3995;50.856;4.404;2023-02-26T12:05:46;9.60;32.70
7900;DHT22;3995;50.856;4.404;2023-02-26T12:08:17;9.60;33.10
7900;DHT22;3995;50.856;4.404;2023-02-26T12:10:59;9.70;33.10
7900;DHT22;3995;50.856;4.404;2023-02-26T12:13:33;9.70;33.20
7900;DHT22;3995;50.856;4.404;2023-02-26T12:16:10;9.70;33.30
7900;DHT22;3995;50.856;4.404;2023-02-26T12:18:53;9.70;32.80
7900;DHT22;3995;50.856;4.404;2023-02-26T12:21:56;9.70;32.50
7900;DHT22;3995;50.856;4.404;2023-02-26T12:27:32;9.70;32.70
7900;DHT22;3995;50.856;4.404;2023-02-26T12:30:19;9.70;32.90
7900;DHT22;3995;50.856;4.404;2023-02-26T12:33:00;9.70;32.70
7900;DHT22;3995;50.856;4.404;2023-02-26T12:35:39;9.70;32.80
7900;DHT22;3995;50.856;4.404;2023-02-26T12:38:27;9.70;33.40
7900;DHT22;3995;50.856;4.404;2023-02-26T12:43:56;9.70;32.90
7900;DHT22;3995;50.856;4.404;2023-02-26T12:46:40;9.70;33.10
7900;DHT22;3995;50.856;4.404;2023-02-26T12:49:42;9.70;33.00
7900;DHT22;3995;50.856;4.404;2023-02-26T12:52:28;9.70;33.00
7900;DHT22;3995;50.856;4.404;2023-02-26T12:55:11;9.70;33.10
7900;DHT22;3995;50.856;4.404;2023-02-26T12:57:53;9.60;32.90
7900;DHT22;3995;50.856;4.404;2023-02-26T13:00:56;9.60;32.60
7900;DHT22;3995;50.856;4.404;2023-02-26T13:03:47;9.60;32.30
7900;DHT22;3995;50.856;4.404;2023-02-26T13:06:39;9.60;32.10
7900;DHT22;3995;50.856;4.404;2023-02-26T13:09:21;9.60;31.90
7900;DHT22;3995;50.856;4.404;2023-02-26T13:12:02;9.50;31.90
7900;DHT22;3995;50.856;4.404;2023-02-26T13:14:44;9.50;32.10
7900;DHT22;3995;50.856;4.404;2023-02-26T13:17:17;9.50;32.50
7900;DHT22;3995;50.856;4.404;2023-02-26T13:19:48;9.50;32.50
7900;DHT22;3995;50.856;4.404;2023-02-26T13:22:20;9.50;33.00
7900;DHT22;3995;50.856;4.404;2023-02-26T13:24:53;9.40;32.10
7900;DHT22;3995;50.856;4.404;2023-02-26T13:27:26;9.40;32.20
7900;DHT22;3995;50.856;4.404;2023-02-26T13:30:14;9.40;32.10
7900;DHT22;3995;50.856;4.404;2023-02-26T13:32:44;9.40;32.00
7900;DHT22;3995;50.856;4.404;2023-02-26T13:35:19;9.30;31.80
7900;DHT22;3995;50.856;4.404;2023-02-26T13:37:49;9.30;31.60
7900;DHT22;3995;50.856;4.404;2023-02-26T13:40:39;9.30;31.50
7900;DHT22;3995;50.856;4.404;2023-02-26T13:43:19;9.40;32.10
7900;DHT22;3995;50.856;4.404;2023-02-26T13:45:52;9.40;31.60
7900;DHT22;3995;50.856;4.404;2023-02-26T13:48:31;9.30;31.70
7900;DHT22;3995;50.856;4.404;2023-02-26T13:51:06;9.30;30.70
7900;DHT22;3995;50.856;4.404;2023-02-26T13:53:51;9.40;30.70
7900;DHT22;3995;50.856;4.404;2023-02-26T13:56:44;9.40;30.40
7900;DHT22;3995;50.856;4.404;2023-02-26T13:59:31;9.40;30.30
7900;DHT22;3995;50.856;4.404;2023-02-26T14:08:25;9.30;30.10
7900;DHT22;3995;50.856;4.404;2023-02-26T14:10:56;9.30;30.30
7900;DHT22;3995;50.856;4.404;2023-02-26T14:13:32;9.20;30.30
7900;DHT22;3995;50.856;4.404;2023-02-26T14:16:08;9.30;30.00
7900;DHT22;3995;50.856;4.404;2023-02-26T14:18:40;9.30;30.00
7900;DHT22;3995;50.856;4.404;2023-02-26T14:21:45;9.30;30.00
7900;DHT22;3995;50.856;4.404;2023-02-26T14:24:18;9.40;30.00
7900;DHT22;3995;50.856;4.404;2023-02-26T14:26:48;9.30;30.20
7900;DHT22;3995;50.856;4.404;2023-02-26T14:29:21;9.40;30.30
7900;DHT22;3995;50.856;4.404;2023-02-26T14:32:05;9.40;30.10
7900;DHT22;3995;50.856;4.404;2023-02-26T14:34:46;9.40;30.00
7900;DHT22;3995;50.856;4.404;2023-02-26T14:37:18;9.40;30.00
7900;DHT22;3995;50.856;4.404;2023-02-26T14:39:48;9.40;30.00
7900;DHT22;3995;50.856;4.404;2023-02-26T14:42:20;9.40;30.00
7900;DHT22;3995;50.856;4.404;2023-02-26T14:44:50;9.40;29.90
7900;DHT22;3995;50.856;4.404;2023-02-26T14:47:21;9.40;29.90
7900;DHT22;3995;50.856;4.404;2023-02-26T14:49:48;9.40;29.90
7900;DHT22;3995;50.856;4.404;2023-02-26T14:52:47;9.40;29.80
7900;DHT22;3995;50.856;4.404;2023-02-26T14:55:35;9.40;29.70
7900;DHT22;3995;50.856;4.404;2023-02-26T15:01:05;9.40;29.80
7900;DHT22;3995;50.856;4.404;2023-02-26T15:04:00;9.40;29.80
7900;DHT22;3995;50.856;4.404;2023-02-26T15:09:42;9.40;29.80
7900;DHT22;3995;50.856;4.404;2023-02-26T15:12:25;9.40;29.90
7900;DHT22;3995;50.856;4.404;2023-02-26T15:15:06;9.40;30.00
7900;DHT22;3995;50.856;4.404;2023-02-26T15:18:26;9.40;30.00
7900;DHT22;3995;50.856;4.404;2023-02-26T15:21:06;9.40;30.30
7900;DHT22;3995;50.856;4.404;2023-02-26T15:23:39;9.30;30.50
7900;DHT22;3995;50.856;4.404;2023-02-26T15:26:16;9.30;30.50
7900;DHT22;3995;50.856;4.404;2023-02-26T15:28:46;9.30;30.50
7900;DHT22;3995;50.856;4.404;2023-02-26T15:31:17;9.30;30.50
7900;DHT22;3995;50.856;4.404;2023-02-26T15:33:54;9.30;30.50
7900;DHT22;3995;50.856;4.404;2023-02-26T15:36:44;9.30;30.50
7900;DHT22;3995;50.856;4.404;2023-02-26T15:39:19;9.40;30.80
7900;DHT22;3995;50.856;4.404;2023-02-26T15:41:52;9.30;30.80
7900;DHT22;3995;50.856;4.404;2023-02-26T15:44:25;9.40;30.80
7900;DHT22;3995;50.856;4.404;2023-02-26T15:47:30;9.30;30.80
7900;DHT22;3995;50.856;4.404;2023-02-26T15:50:02;9.40;31.20
7900;DHT22;3995;50.856;4.404;2023-02-26T15:52:30;9.40;31.00
7900;DHT22;3995;50.856;4.404;2023-02-26T15:55:04;9.40;30.80
7900;DHT22;3995;50.856;4.404;2023-02-26T15:57:37;9.40;30.90
7900;DHT22;3995;50.856;4.404;2023-02-26T16:00:08;9.40;31.00
7900;DHT22;3995;50.856;4.404;2023-02-26T16:02:42;9.40;31.20
7900;DHT22;3995;50.856;4.404;2023-02-26T16:05:14;9.40;31.30
7900;DHT22;3995;50.856;4.404;2023-02-26T16:07:49;9.40;31.40
7900;DHT22;3995;50.856;4.404;2023-02-26T16:10:38;9.40;31.40
7900;DHT22;3995;50.856;4.404;2023-02-26T16:13:11;9.50;31.50
7900;DHT22;3995;50.856;4.404;2023-02-26T16:15:41;9.40;31.30
7900;DHT22;3995;50.856;4.404;2023-02-26T16:18:21;9.40;31.30
7900;DHT22;3995;50.856;4.404;2023-02-26T16:20:53;9.50;31.50
7900;DHT22;3995;50.856;4.404;2023-02-26T16:23:38;9.40;31.70
7900;DHT22;3995;50.856;4.404;2023-02-26T16:26:12;9.40;31.60
7900;DHT22;3995;50.856;4.404;2023-02-26T16:28:43;9.40;31.80
7900;DHT22;3995;50.856;4.404;2023-02-26T16:31:25;9.40;31.80
7900;DHT22;3995;50.856;4.404;2023-02-26T16:33:57;9.40;31.90
7900;DHT22;3995;50.856;4.404;2023-02-26T16:36:28;9.40;31.90
7900;DHT22;3995;50.856;4.404;2023-02-26T16:38:59;9.40;32.00
7900;DHT22;3995;50.856;4.404;2023-02-26T16:41:30;9.40;32.10
7900;DHT22;3995;50.856;4.404;2023-02-26T16:44:01;9.40;32.20
7900;DHT22;3995;50.856;4.404;2023-02-26T16:46:39;9.50;32.20
7900;DHT22;3995;50.856;4.404;2023-02-26T16:49:14;9.50;32.30
7900;DHT22;3995;50.856;4.404;2023-02-26T16:51:44;9.50;32.30
7900;DHT22;3995;50.856;4.404;2023-02-26T16:54:18;9.50;32.50
7900;DHT22;3995;50.856;4.404;2023-02-26T16:56:48;9.50;32.50
7900;DHT22;3995;50.856;4.404;2023-02-26T16:59:18;9.50;32.50
7900;DHT22;3995;50.856;4.404;2023-02-26T17:01:51;9.50;32.60
7900;DHT22;3995;50.856;4.404;2023-02-26T17:04:35;9.60;32.80
7900;DHT22;3995;50.856;4.404;2023-02-26T17:07:08;9.50;32.80
7900;DHT22;3995;50.856;4.404;2023-02-26T17:09:51;9.60;32.80